SEBI

Registration No.

INH000000305

Ip Address Lookup

So far visitors:

customizable counter

TRIAL

TRIAL

SEND SMS FOR TRIAL

EQUITY - COMMODITY OR BOTH

TO

 09920033678

AND GET TRIAL

 


Information: COPPER (MCX): LOT SIZE CHANGED TO 2500 from 1000 (from JUL CONTRACT)

SEBI Registration No.: INH000000305 *****

* Commodity: 9500/month * Equity: 6000/month


* Gold Package: 7000 * Gold-Silver Package: 8100
*Crude-NG-Copper-Nickel Package: 6000


To See Past Performance, Click Here

For TRIAL / Registration,

click here

Past Performance >> Equity Tips
 
Search
 
Entry Start Date Entry End Date
Exit Start Date Exit End Date
Scrip Name Contract
Package
 

Packages: Precious Metals - Energy and Base Metals - Profit is calculated on basis of 1 lot per call

Package: Equity calls: Profit is calculated as follows:

1. If the scrip is in F & O then 1 lot is counted otherwise

2. Trade of Rs.1,50,000/- per call is counted.

 
Page: ( 1 2 3 4 5 6 7 8 9 10 11 12 13 14 15 16 17 18 19 20 21 22 23 24 25 26 27 28 29 30 31 32 33 34 35 36 37 38 39 40 41 42 43 44 45 46 47 48 49 50 51 52 53 54 55 56 57 58 59 60 61 62 63 64 65 66 67 68 69 70 71 72 73 74 75 76 77 78 79 80 81 82 83 84 85 86 87 88 89 90 91 92 93 94 95 96 97 98 99 100 101 102 103 104 105 106 107 108 109 110 111 112 ) [Current Page: 16]
Displaying 1126 to 1200   Calls
Entry Date Type Scrip Entry Price (Rs) T1
(Rs)
T2
(Rs)
T3
(Rs)
Stop Loss
(Rs)
Exit Date Exit Rate
(Rs)
Profit
(Rs)
 
20-02-18 Sell DLF 223.90 221 218 215 225. 20-02-18 221.90 10000.00 More
19-02-18 Buy BOMDYEING 283 293 298 320 271 27-02-18 271 -7200.00 More
19-02-18 Sell PC Jewellers 370 360 350 389 19-02-18 350 30000.00 More
19-02-18 Buy 1318 1328 1338 1360 1300 19-02-18 1300 -9000.00 More
19-02-18 Sell ESCORTS 892 888 882 880 900 19-02-18 880 13200.00 More
16-02-18 Sell VOLTAS 584 578 576 574 592 16-02-18 577 7000.00 More
16-02-18 Buy ESCORTS 880 884 886 888 876 16-02-18 876 -4400.00 More
16-02-18 Buy Delta Corp 382 392 395 400 372 16-02-18 372 -6000.00 More
15-02-18 Sell AXIS BANK 548 538 535 532 558 15-02-18 543 6000.00 More
15-02-18 Buy LOVABLE 236 242 246 248 232 15-02-18 242 3900.00 More
14-02-18 Buy ONGC 189 193 197 203 186.50 14-02-18 186.50 -9375.00 More
14-02-18 Sell HCL TECH 940 930 920 910 950 14-02-18 935 3500.00 More
12-02-18 Buy BANK NIFTY 25630 25675 25725 25850 25530 12-02-18 25759 10320.00 More
12-02-18 Buy BOMDYEING 253 263 275 290 242 16-02-18 290 22200.00 More
12-02-18 Buy VEDL 315 319 320 322 312 14-02-18 324 15750.00 More
09-02-18 Buy Reliance Power 41.60 43 44 45 40.90 09-02-18 45 44200.00 More
09-02-18 Buy 800 820 825 830 790 09-02-18 830 6000.00 More
08-02-18 Buy Reliance Power 41.60 43 44 45 40.90 08-02-18 43 18200.00 More
08-02-18 Sell CENTURY 1230 1210 1180 1170 1241 08-02-18 1241 -6050.00 More
07-02-18 Buy L&TFin 157.50 160.50 162.50 164.50 154.50 08-02-18 164.50 31500.00 More
07-02-18 Buy TATA STEEL 661 668 672 675 649 07-02-18 667 6366.00 More
06-02-18 Buy LUPIN 830 860 890 900 808 06-02-18 818 -7200.00 More
06-02-18 Sell ESCORTS 875 860 850 825 905 06-02-18 860 16500.00 More
05-02-18 Buy TECH MAH 625 635 645 660 612 06-02-18 615 -12000.00 More
05-02-18 Sell RELIANCE CAPITAL 444 419 405 400 460 05-02-18 444 0.00 More
05-02-18 Sell BAJAJ AUTO 3185 3125 3100 3075 3300 05-02-18 3146 9750.00 More
02-02-18 Sell ASIAN PAINT 1142 1120 1110 1100 1160 02-02-18 1125 10200.00 More
02-02-18 Sell ESCORTS 873 855 835 825 891 02-02-18 842 34100.00 More
01-02-18 Sell BANK NIFTY 27410 27300 27200 27000 27540 01-02-18 27080 26400.00 More
01-02-18 Sell Nifty 11020 10970 10950 10900 11090 01-02-18 10900 18000.00 More
01-02-18 Buy DHAMPUR SUGAR 190 197 200 205 180 02-02-18 180 -8000.00 More
29-01-18 Buy LT 1421 1431 1435 1441 1409 29-01-18 1436 11250.00 More
25-01-18 Sell Nifty 11040 11010 10980 10970 11080 25-01-18 11012 4200.00 More
25-01-18 Sell BANK NIFTY 27405 27300 27200 27000 27500 25-01-18 27126 22320.00 More
24-01-18 Sell TITAN 905 895 890 880 912 24-01-18 890 22500.00 More
23-01-18 Buy WABAG 635 645 655 675 629 23-01-18 629 -900.00 More
23-01-18 Buy 896 910 920 930 880 23-01-18 880 -1600.00 More
23-01-18 Buy BHARAT FOIRG 736 744 750 760 724 23-01-18 752 19200.00 More
22-01-18 Sell HindZinc 298 295 293 291 301 22-01-18 293 16000.00 More
18-01-18 Buy CANFINHOME 476 486 488 490 466 18-01-18 466 -12500.00 More
17-01-18 Buy LUPIN 904 914 920 924 894 17-01-18 922 10800.00 More
17-01-18 Sell BANK NIFTY 25970 25900 25850 25800 26070 17-01-18 25912 4640.00 More
17-01-18 Sell GRASIM 1236 1226 1220 1210 1245 17-01-18 1212 18000.00 More
16-01-18 Sell HERO MOTOR 3625 3600 3575 3500 3655 16-01-18 3601 4800.00 More
15-01-18 Buy SUNTV 1074 1085 1090 1095 1065 15-01-18 1084.80 10800.00 More
12-01-18 Buy CAPF 832 842 845 852 810 12-01-18 844 9600.00 More
11-01-18 Buy UNION BANK 143 148 150 151 138 12-01-18 138 -20000.00 More
10-01-18 Buy TITAN 928 936 938 940 924 10-01-18 924 -6000.00 More
10-01-18 Buy CEAT 1995 2015 2020 2025 1975 10-01-18 2018 8050.00 More
10-01-18 Buy JUST DIAL 557 565 570 575 550 10-01-18 575 25200.00 More
09-01-18 Buy LUPIN 921 930 935 940 909 09-01-18 930 5400.00 More
08-01-18 Buy BAJAJ ELE 572 580 585 590 564 08-01-18 564 -2120.00 More
08-01-18 Buy JUB FOOD 1900 1920 1940 1960 1880 08-01-18 1950 25000.00 More
08-01-18 Buy BOI 173.50 178 181 190 169.50 09-01-18 169.50 -24000.00 More
05-01-18 Buy BANK NIFTY 25580 25650 25700 25750 25480 05-01-18 25550 -2400.00 More
05-01-18 Buy LICHSGFIN 573 583 585 587 562 08-01-18 586 14300.00 More
04-01-18 Buy BANK NIFTY 25490 25550 25575 25600 25460 04-01-18 25460 -2400.00 More
04-01-18 Buy BF Utilities 510 520 525 535 500 04-01-18 534 7200.00 More
03-01-18 Buy ONGC 194 198 205 210 191 04-01-18 198 15000.00 More
03-01-18 Sell RELIANCE INFRA 563 557 555 550 565 03-01-18 565 -2600.00 More
03-01-18 Buy EROS MEDIA 225 235 240 245 215 04-01-18 227 1300.00 More
02-01-18 Buy WABAG 633 645 650 655 620 02-01-18 620 -2925.00 More
01-01-18 Buy Graphite 725 735 740 745 713 01-01-18 744 2850.00 More
29-12-17 Buy KSCL 551 561 570 575 540 02-01-18 540 -16500.00 More
27-12-17 Buy ONGC 193 198 200 210 188 29-12-17 196 11250.00 More
27-12-17 Buy Coal India 263 270 278 280 254 02-01-18 269 10200.00 More
21-12-17 Buy BHEL 91.50 94.50 97.50 99 87.50 26-12-17 94 18750.00 More
21-12-17 Sell RAYMOND 1045 1030 1025 1000 1060 21-12-17 1045 0.00 More
20-12-17 Buy BANK NIFTY 25715 25760 25775 25800 25675 20-12-17 25765 4000.00 More
20-12-17 Buy SUN PHARMA 530 538 545 560 519 21-12-17 538 6400.00 More
19-12-17 Buy WOCKHARDT 777 790 795 800 759 19-12-17 795 14400.00 More
19-12-17 Buy HPCL 438 455 460 465 426 21-12-17 434 -6300.00 More
18-12-17 Buy Apollo Tyres 251 255 256 257 248 18-12-17 257 18000.00 More
18-12-17 Sell M&M 1460 1445 1430 1425 1480 18-12-17 1480 -10000.00 More
15-12-17 Buy GAIL 490 494 496 498 486 15-12-17 486 -8000.00 More
Page wise profit 497026.00 Rs
Profit 26725375.50 Rs
TRIAL

TRIAL

SEND SMS FOR TRIAL

EQUITY - COMMODITY OR BOTH

TO

 09920033678

AND GET TRIAL